createdAt,value
2023-04-27T00:01:44.749Z,17.60
2023-04-27T00:04:14.293Z,17.40
2023-04-27T00:06:42.116Z,16.80
2023-04-27T00:09:09.175Z,17.40
2023-04-27T00:11:36.218Z,17.30
2023-04-27T00:14:03.489Z,17.20
2023-04-27T00:16:30.628Z,17.20
2023-04-27T00:18:57.756Z,17.20
2023-04-27T00:21:24.806Z,17.80
2023-04-27T00:23:51.893Z,17.20
2023-04-27T00:26:19.126Z,17.20
2023-04-27T00:28:46.858Z,17.20
2023-04-27T00:31:13.963Z,17.60
2023-04-27T00:33:41.057Z,17.20
2023-04-27T00:36:08.710Z,17.20
2023-04-27T00:38:35.803Z,17.20
2023-04-27T00:41:07.340Z,17.20
2023-04-27T00:43:43.545Z,17.20
2023-04-27T00:46:12.813Z,17.30
2023-04-27T00:48:41.021Z,17.30
2023-04-27T00:51:08.333Z,17.40
2023-04-27T00:53:37.276Z,17.40
2023-04-27T00:56:06.435Z,17.30
2023-04-27T00:58:33.608Z,17.30
2023-04-27T01:01:01.170Z,17.30
2023-04-27T01:03:28.448Z,17.20
2023-04-27T01:05:56.752Z,17.20
2023-04-27T01:08:24.560Z,17.40
2023-04-27T01:10:51.722Z,17.20
2023-04-27T01:13:19.057Z,17.20
2023-04-27T01:15:46.152Z,17.10
2023-04-27T01:18:13.763Z,17.20
2023-04-27T01:20:42.168Z,17.20
2023-04-27T01:23:14.271Z,17.20
2023-04-27T01:25:43.546Z,17.20
2023-04-27T01:28:10.691Z,17.30
2023-04-27T01:30:37.759Z,17.30
2023-04-27T01:33:04.870Z,17.30
2023-04-27T01:35:32.088Z,17.40
2023-04-27T01:37:59.481Z,17.40
2023-04-27T01:40:26.580Z,17.40
2023-04-27T01:42:53.643Z,17.40
2023-04-27T01:45:20.934Z,17.40
2023-04-27T01:47:50.437Z,17.40
2023-04-27T01:50:17.570Z,17.30
2023-04-27T01:52:44.641Z,17.20
2023-04-27T01:55:11.905Z,17.60
2023-04-27T01:57:39.404Z,17.20
2023-04-27T02:00:07.152Z,17.20
2023-04-27T02:02:34.396Z,17.20
2023-04-27T02:05:01.517Z,17.20
2023-04-27T02:07:28.578Z,17.20
2023-04-27T02:09:55.726Z,17.10
2023-04-27T02:12:22.764Z,17.20
2023-04-27T02:14:49.849Z,17.20
2023-04-27T02:17:16.976Z,17.30
2023-04-27T02:19:44.031Z,17.30
2023-04-27T02:22:11.084Z,17.20
2023-04-27T02:24:38.132Z,17.30
2023-04-27T02:27:05.236Z,17.30
2023-04-27T02:29:32.716Z,17.30
2023-04-27T02:32:00.470Z,17.40
2023-04-27T02:34:27.574Z,17.20
2023-04-27T02:36:54.624Z,17.20
2023-04-27T02:39:21.683Z,17.20
2023-04-27T02:41:48.761Z,17.10
2023-04-27T02:44:15.875Z,17.10
2023-04-27T02:46:45.269Z,17.10
2023-04-27T02:49:12.781Z,17.10
2023-04-27T02:51:39.974Z,17.10
2023-04-27T02:54:07.014Z,17.20
2023-04-27T02:56:34.059Z,17.20
2023-04-27T02:59:01.291Z,17.20
2023-04-27T03:01:28.648Z,17.30
2023-04-27T03:03:55.908Z,17.50
2023-04-27T03:06:23.150Z,17.30
2023-04-27T03:08:50.389Z,17.40
2023-04-27T03:11:17.419Z,17.30
2023-04-27T03:13:44.461Z,17.30
2023-04-27T03:16:11.776Z,17.70
2023-04-27T03:18:39.272Z,17.30
2023-04-27T03:21:11.186Z,17.30
2023-04-27T03:23:38.919Z,17.30
2023-04-27T03:26:10.859Z,17.40
2023-04-27T03:28:38.477Z,17.30
2023-04-27T03:31:06.772Z,17.40
2023-04-27T03:33:34.254Z,17.30
2023-04-27T03:36:01.553Z,17.30
2023-04-27T03:38:28.859Z,17.40
2023-04-27T03:40:56.517Z,17.30
2023-04-27T03:43:24.552Z,16.50
2023-04-27T03:45:52.210Z,17.30
2023-04-27T03:48:19.827Z,17.30
2023-04-27T03:50:47.498Z,17.30
2023-04-27T03:53:14.960Z,17.50
2023-04-27T03:55:43.388Z,17.30
2023-04-27T03:58:11.279Z,17.20
2023-04-27T04:00:38.655Z,17.30
2023-04-27T04:03:06.890Z,17.20
2023-04-27T04:05:34.194Z,17.20
2023-04-27T04:08:01.338Z,17.20
2023-04-27T04:10:28.635Z,17.10
2023-04-27T04:12:55.839Z,17.10
2023-04-27T04:15:22.992Z,17.10
2023-04-27T04:17:50.147Z,17.60
2023-04-27T04:20:17.375Z,17.20
2023-04-27T04:22:44.504Z,17.30
2023-04-27T04:25:12.871Z,17.30
2023-04-27T04:27:40.862Z,17.30
2023-04-27T04:30:08.434Z,17.40
2023-04-27T04:32:37.780Z,17.40
2023-04-27T04:35:06.070Z,17.30
2023-04-27T04:37:35.271Z,17.40
2023-04-27T04:40:10.446Z,17.30
2023-04-27T04:42:38.965Z,17.30
2023-04-27T04:45:07.175Z,17.30
2023-04-27T04:47:34.557Z,17.30
2023-04-27T04:50:01.942Z,17.30
2023-04-27T04:52:29.117Z,17.30
2023-04-27T04:54:56.302Z,17.30
2023-04-27T04:57:23.592Z,17.20
2023-04-27T04:59:50.799Z,17.30
2023-04-27T05:02:17.974Z,17.20
2023-04-27T05:04:45.560Z,17.20
2023-04-27T05:07:15.080Z,17.20
2023-04-27T05:09:42.716Z,17.40
2023-04-27T05:12:10.083Z,17.20
2023-04-27T05:14:37.200Z,17.20
2023-04-27T05:17:04.240Z,17.20
2023-04-27T05:19:31.646Z,17.30
2023-04-27T05:21:59.085Z,17.30
2023-04-27T05:24:26.849Z,17.70
2023-04-27T05:26:54.732Z,17.30
2023-04-27T05:29:22.523Z,17.30
2023-04-27T05:31:49.662Z,17.30
2023-04-27T05:34:16.905Z,16.90
2023-04-27T05:36:44.052Z,17.30
2023-04-27T05:39:11.241Z,17.30
2023-04-27T05:41:38.469Z,17.30
2023-04-27T05:44:06.398Z,17.30
2023-04-27T05:46:33.708Z,17.30
2023-04-27T05:49:01.462Z,17.50
2023-04-27T05:51:28.808Z,16.90
2023-04-27T05:53:56.080Z,17.30
2023-04-27T05:56:23.283Z,17.30
2023-04-27T05:58:50.382Z,17.40
2023-04-27T06:01:17.613Z,17.30
2023-04-27T06:03:44.868Z,17.40
2023-04-27T06:06:12.605Z,17.30
2023-04-27T06:08:39.798Z,17.30
2023-04-27T06:11:07.000Z,17.30
2023-04-27T06:13:34.181Z,17.30
2023-04-27T06:16:01.831Z,17.30
2023-04-27T06:18:29.124Z,17.30
2023-04-27T06:21:01.451Z,17.50
2023-04-27T06:23:28.633Z,17.40
2023-04-27T06:25:55.918Z,17.50
2023-04-27T06:28:23.045Z,17.40
2023-04-27T06:30:50.216Z,17.60
2023-04-27T06:33:17.349Z,17.40
2023-04-27T06:35:47.353Z,17.50
2023-04-27T06:38:14.707Z,17.40
2023-04-27T06:40:41.871Z,17.80
2023-04-27T06:43:08.969Z,17.40
2023-04-27T06:45:36.152Z,17.40
2023-04-27T06:48:03.529Z,17.60
2023-04-27T06:50:30.958Z,17.40
2023-04-27T06:52:58.067Z,17.80
2023-04-27T06:55:27.031Z,17.40
2023-04-27T06:57:54.117Z,17.50
2023-04-27T07:00:21.920Z,17.40
2023-04-27T07:02:49.034Z,17.40
2023-04-27T07:05:16.390Z,17.40
2023-04-27T07:07:43.516Z,17.30
2023-04-27T07:10:10.933Z,17.50
2023-04-27T07:12:40.320Z,17.40
2023-04-27T07:15:08.143Z,17.50
2023-04-27T07:17:35.345Z,17.40
2023-04-27T07:20:04.655Z,17.40
2023-04-27T07:22:32.317Z,17.40
2023-04-27T07:24:59.486Z,17.40
2023-04-27T07:27:26.604Z,17.40
2023-04-27T07:29:53.711Z,17.40
2023-04-27T07:32:21.836Z,17.40
2023-04-27T07:34:53.355Z,17.10
2023-04-27T07:37:22.175Z,17.40
2023-04-27T07:39:51.980Z,17.40
2023-04-27T07:42:20.115Z,17.40
2023-04-27T07:44:47.340Z,17.40
2023-04-27T07:47:14.407Z,17.40
2023-04-27T07:49:41.666Z,17.30
2023-04-27T07:52:08.721Z,17.20
2023-04-27T07:54:35.970Z,16.90
2023-04-27T07:57:09.950Z,16.80
2023-04-27T07:59:37.673Z,16.70
2023-04-27T08:02:18.602Z,16.70
2023-04-27T08:04:48.137Z,16.80
2023-04-27T08:07:17.333Z,16.80
2023-04-27T08:09:45.105Z,16.90
2023-04-27T08:12:12.257Z,16.90
2023-04-27T08:14:39.304Z,17.00
2023-04-27T08:17:06.827Z,17.10
2023-04-27T08:19:34.262Z,17.00
2023-04-27T08:22:01.335Z,16.90
2023-04-27T08:24:28.402Z,16.60
2023-04-27T08:26:55.500Z,16.30
2023-04-27T08:29:27.724Z,16.10
2023-04-27T08:31:58.905Z,16.00
2023-04-27T08:34:27.001Z,15.90
2023-04-27T08:36:54.402Z,15.70
2023-04-27T08:39:21.935Z,15.60
2023-04-27T08:41:49.155Z,15.60
2023-04-27T08:44:16.404Z,15.80
2023-04-27T08:46:43.572Z,15.80
2023-04-27T08:49:11.368Z,16.10
2023-04-27T08:51:39.134Z,16.20
2023-04-27T08:54:06.261Z,16.50
2023-04-27T08:56:33.389Z,16.70
2023-04-27T08:59:03.937Z,16.80
2023-04-27T09:01:32.148Z,16.80
2023-04-27T09:04:02.304Z,17.00
2023-04-27T09:06:34.464Z,17.10
2023-04-27T09:09:02.941Z,17.10
2023-04-27T09:11:39.012Z,17.20
2023-04-27T09:14:16.760Z,17.20
2023-04-27T09:16:44.464Z,17.30
2023-04-27T09:19:12.029Z,17.50
2023-04-27T09:21:39.358Z,17.30
2023-04-27T09:24:13.540Z,17.50
2023-04-27T09:26:42.709Z,17.40
2023-04-27T09:29:10.243Z,17.30
2023-04-27T09:31:38.027Z,17.40
2023-04-27T09:34:05.424Z,17.40
2023-04-27T09:36:32.627Z,17.30
2023-04-27T09:39:06.643Z,17.20
2023-04-27T09:41:34.000Z,17.30
2023-04-27T09:44:01.915Z,17.40
2023-04-27T09:46:29.712Z,17.40
2023-04-27T09:48:57.493Z,17.40
2023-04-27T09:51:24.679Z,17.40
2023-04-27T09:53:53.916Z,17.40
2023-04-27T09:56:30.640Z,17.40
2023-04-27T09:59:22.468Z,17.40
2023-04-27T10:01:54.665Z,17.50
2023-04-27T10:04:46.178Z,17.40
2023-04-27T10:07:15.056Z,17.40
2023-04-27T10:09:46.392Z,17.40
2023-04-27T10:12:26.539Z,17.40
2023-04-27T10:14:58.928Z,17.50
2023-04-27T10:17:31.188Z,17.40
2023-04-27T10:20:09.845Z,17.40
2023-04-27T10:22:44.763Z,17.40
2023-04-27T10:25:23.485Z,17.40
2023-04-27T10:27:55.800Z,17.50
2023-04-27T10:30:24.901Z,17.20
2023-04-27T10:32:57.804Z,17.40
2023-04-27T10:35:34.100Z,17.40
2023-04-27T10:38:08.667Z,17.30
2023-04-27T10:40:37.239Z,17.30
2023-04-27T10:43:18.020Z,17.40
2023-04-27T10:45:45.304Z,17.40
2023-04-27T10:48:16.629Z,17.40
2023-04-27T10:50:47.428Z,17.40
2023-04-27T10:53:15.549Z,17.40
2023-04-27T10:55:42.790Z,17.50
2023-04-27T10:58:09.887Z,17.50
2023-04-27T11:00:41.717Z,17.50
2023-04-27T11:03:15.648Z,17.50
2023-04-27T11:05:44.919Z,17.50
2023-04-27T11:08:14.552Z,17.50
2023-04-27T11:10:47.408Z,17.50
2023-04-27T11:13:25.467Z,17.50
2023-04-27T11:15:57.690Z,17.50
2023-04-27T11:18:33.601Z,17.50
2023-04-27T11:21:11.167Z,17.50
2023-04-27T11:23:39.320Z,17.50
2023-04-27T11:26:17.401Z,17.50
2023-04-27T11:28:59.026Z,17.50
2023-04-27T11:31:43.631Z,17.50
2023-04-27T11:34:17.159Z,17.50
2023-04-27T11:36:44.778Z,17.40
2023-04-27T11:39:22.318Z,17.40
2023-04-27T11:41:49.415Z,17.50
2023-04-27T11:44:16.506Z,18.20
2023-04-27T11:46:45.206Z,17.40
2023-04-27T11:49:12.862Z,17.50
2023-04-27T11:51:40.502Z,17.40
2023-04-27T11:54:07.999Z,17.50
2023-04-27T11:56:40.556Z,17.50
2023-04-27T11:59:19.748Z,17.50
2023-04-27T12:01:47.030Z,17.50
2023-04-27T12:04:14.651Z,17.60
2023-04-27T12:06:42.024Z,18.20
2023-04-27T12:09:09.091Z,17.60
2023-04-27T12:11:36.190Z,17.60
2023-04-27T12:14:03.852Z,17.60
2023-04-27T12:16:31.089Z,17.10
2023-04-27T12:18:58.239Z,17.60
2023-04-27T12:21:25.351Z,17.50
2023-04-27T12:23:52.693Z,17.50
2023-04-27T12:26:20.404Z,17.60
2023-04-27T12:28:47.462Z,18.00
2023-04-27T12:31:16.862Z,17.90
2023-04-27T12:33:43.957Z,17.20
2023-04-27T12:36:11.216Z,18.20
2023-04-27T12:38:38.328Z,17.60
2023-04-27T12:41:05.710Z,17.60
2023-04-27T12:43:33.036Z,17.60
2023-04-27T12:46:00.236Z,17.60
2023-04-27T12:48:27.524Z,17.60
2023-04-27T12:50:54.737Z,17.60
2023-04-27T12:53:21.798Z,17.70
2023-04-27T12:55:48.931Z,17.60
2023-04-27T12:58:16.101Z,17.60
2023-04-27T13:00:43.176Z,17.60
2023-04-27T13:03:10.658Z,17.60
2023-04-27T13:05:37.948Z,17.50
2023-04-27T13:08:05.643Z,17.50
2023-04-27T13:10:32.780Z,17.60
2023-04-27T13:12:59.967Z,17.60
2023-04-27T13:15:27.068Z,17.60
2023-04-27T13:17:54.378Z,17.60
2023-04-27T13:20:21.572Z,17.60
2023-04-27T13:22:48.753Z,17.60
2023-04-27T13:25:16.757Z,17.60
2023-04-27T13:27:43.869Z,17.60
2023-04-27T13:30:11.155Z,17.60
2023-04-27T13:32:38.341Z,17.60
2023-04-27T13:35:05.826Z,17.60
2023-04-27T13:37:32.879Z,17.60
2023-04-27T13:40:00.250Z,17.60
2023-04-27T13:42:29.514Z,17.60
2023-04-27T13:44:57.058Z,17.60
2023-04-27T13:47:24.140Z,17.60
2023-04-27T13:49:51.306Z,17.60
2023-04-27T13:52:18.514Z,17.60
2023-04-27T13:54:45.595Z,17.60
2023-04-27T13:57:12.697Z,17.90
2023-04-27T13:59:39.750Z,17.60
2023-04-27T14:02:08.271Z,17.60
2023-04-27T14:04:35.527Z,17.60
2023-04-27T14:07:02.812Z,17.60
2023-04-27T14:09:30.139Z,17.60
2023-04-27T14:11:57.675Z,17.50
2023-04-27T14:14:24.816Z,17.50
2023-04-27T14:16:53.209Z,17.60
2023-04-27T14:19:20.691Z,17.60
2023-04-27T14:21:49.774Z,16.90
2023-04-27T14:24:16.890Z,18.20
2023-04-27T14:26:44.201Z,16.90
2023-04-27T14:29:11.694Z,17.50
2023-04-27T14:31:40.471Z,17.60
2023-04-27T14:34:08.297Z,17.60
2023-04-27T14:36:35.789Z,17.60
2023-04-27T14:39:05.559Z,17.60
2023-04-27T14:41:32.919Z,17.60
2023-04-27T14:43:59.964Z,17.60
2023-04-27T14:46:27.147Z,17.60
2023-04-27T14:48:54.304Z,17.60
2023-04-27T14:51:21.547Z,17.60
2023-04-27T14:53:49.666Z,17.60
2023-04-27T14:56:16.753Z,17.60
2023-04-27T14:58:43.806Z,17.60
2023-04-27T15:01:10.926Z,17.60
2023-04-27T15:03:38.560Z,17.20
2023-04-27T15:06:06.682Z,17.60
2023-04-27T15:08:34.495Z,17.60
2023-04-27T15:11:03.681Z,17.40
2023-04-27T15:13:31.024Z,17.10
2023-04-27T15:15:59.476Z,17.20
2023-04-27T15:18:26.718Z,16.90
2023-04-27T15:20:55.128Z,16.80
2023-04-27T15:23:23.612Z,16.80
2023-04-27T15:25:54.540Z,16.80
2023-04-27T15:28:21.672Z,16.80
2023-04-27T15:30:49.311Z,16.90
2023-04-27T15:33:17.318Z,16.90
2023-04-27T15:35:44.547Z,16.90
2023-04-27T15:38:13.065Z,17.00
2023-04-27T15:40:40.482Z,16.90
2023-04-27T15:43:07.538Z,16.90
2023-04-27T15:45:34.724Z,16.90
2023-04-27T15:48:02.050Z,16.90
2023-04-27T15:50:29.337Z,16.80
2023-04-27T15:52:56.911Z,16.80
2023-04-27T15:55:24.131Z,16.80
2023-04-27T15:57:51.244Z,16.80
2023-04-27T16:00:21.942Z,16.80
2023-04-27T16:02:49.348Z,16.80
2023-04-27T16:05:16.861Z,16.80
2023-04-27T16:07:44.817Z,16.80
2023-04-27T16:10:12.598Z,16.80
2023-04-27T16:12:39.864Z,16.90
2023-04-27T16:15:10.014Z,16.70
2023-04-27T16:17:38.627Z,16.70
2023-04-27T16:20:06.758Z,16.70
2023-04-27T16:22:34.834Z,16.70
2023-04-27T16:25:02.198Z,16.60
2023-04-27T16:27:29.754Z,16.80
2023-04-27T16:29:56.860Z,16.80
2023-04-27T16:32:24.120Z,16.90
2023-04-27T16:34:51.300Z,17.20
2023-04-27T16:37:18.356Z,17.00
2023-04-27T16:39:45.534Z,17.00
2023-04-27T16:42:19.883Z,17.00
2023-04-27T16:44:47.446Z,17.00
2023-04-27T16:47:14.769Z,16.90
2023-04-27T16:49:44.259Z,17.00
2023-04-27T16:52:11.857Z,16.80
2023-04-27T16:54:38.922Z,16.80
2023-04-27T16:57:07.650Z,16.80
2023-04-27T16:59:34.898Z,16.80
2023-04-27T17:02:16.370Z,16.90
2023-04-27T17:04:48.521Z,16.90
2023-04-27T17:07:15.712Z,17.20
2023-04-27T17:09:42.791Z,18.10
2023-04-27T17:12:14.487Z,16.90
2023-04-27T17:14:42.250Z,17.20
2023-04-27T17:17:10.122Z,17.30
2023-04-27T17:19:37.223Z,17.40
2023-04-27T17:22:04.494Z,17.40
2023-04-27T17:24:31.689Z,17.30
2023-04-27T17:26:58.755Z,17.40
2023-04-27T17:29:25.973Z,17.50
2023-04-27T17:31:53.100Z,17.50
2023-04-27T17:34:20.865Z,17.50
2023-04-27T17:36:47.976Z,17.50
2023-04-27T17:39:15.368Z,17.50
2023-04-27T17:41:42.663Z,17.50
2023-04-27T17:44:11.885Z,18.10
2023-04-27T17:46:39.029Z,18.20
2023-04-27T17:49:06.269Z,17.60
2023-04-27T17:51:34.233Z,17.60
2023-04-27T17:54:01.410Z,17.60
2023-04-27T17:56:28.539Z,17.60
2023-04-27T17:58:55.740Z,17.60
2023-04-27T18:01:22.859Z,17.80
2023-04-27T18:03:50.406Z,17.10
2023-04-27T18:06:19.370Z,17.60
2023-04-27T18:08:46.631Z,17.60
2023-04-27T18:11:13.756Z,17.60
2023-04-27T18:13:41.207Z,17.60
2023-04-27T18:16:08.353Z,17.60
2023-04-27T18:18:35.403Z,17.60
2023-04-27T18:21:02.878Z,17.60
2023-04-27T18:23:30.004Z,17.60
2023-04-27T18:26:00.313Z,16.90
2023-04-27T18:28:27.372Z,17.50
2023-04-27T18:30:54.464Z,17.60
2023-04-27T18:33:22.556Z,17.50
2023-04-27T18:35:50.839Z,17.60
2023-04-27T18:38:17.931Z,17.60
2023-04-27T18:40:45.024Z,17.60
2023-04-27T18:43:12.134Z,17.60
2023-04-27T18:45:39.226Z,17.40
2023-04-27T18:48:06.418Z,17.60
2023-04-27T18:50:33.526Z,17.60
2023-04-27T18:53:00.689Z,17.70
2023-04-27T18:55:27.771Z,17.60
2023-04-27T18:57:54.923Z,17.60
2023-04-27T19:00:22.134Z,17.40
2023-04-27T19:02:51.822Z,17.60
2023-04-27T19:05:20.063Z,17.60
2023-04-27T19:07:47.135Z,17.60
2023-04-27T19:10:14.249Z,17.70
2023-04-27T19:12:41.491Z,17.60
2023-04-27T19:15:09.106Z,17.60
2023-04-27T19:17:36.280Z,17.50
2023-04-27T19:20:03.817Z,17.50
2023-04-27T19:22:34.105Z,17.50
2023-04-27T19:25:01.548Z,17.40
2023-04-27T19:27:28.880Z,17.40
2023-04-27T19:29:58.109Z,16.70
2023-04-27T19:32:27.210Z,17.30
2023-04-27T19:34:56.208Z,17.50
2023-04-27T19:37:24.562Z,17.50
2023-04-27T19:45:07.955Z,17.60
2023-04-27T19:47:35.368Z,17.50
2023-04-27T19:50:03.149Z,17.50
2023-04-27T19:52:30.600Z,17.50
2023-04-27T19:54:57.732Z,17.40
2023-04-27T19:57:24.813Z,17.20
2023-04-27T19:59:51.862Z,17.50
2023-04-27T20:02:18.953Z,17.50
2023-04-27T20:04:47.471Z,17.50
2023-04-27T20:07:14.834Z,17.50
2023-04-27T20:09:42.043Z,17.50
2023-04-27T20:12:15.868Z,17.50
2023-04-27T20:14:51.009Z,17.60
2023-04-27T20:17:18.215Z,17.40
2023-04-27T20:19:46.011Z,17.40
2023-04-27T20:22:13.122Z,17.40
2023-04-27T20:24:40.202Z,17.40
2023-04-27T20:27:07.262Z,17.40
2023-04-27T20:29:34.497Z,17.40
2023-04-27T20:32:02.231Z,17.40
2023-04-27T20:34:29.377Z,17.70
2023-04-27T20:36:57.853Z,17.20
2023-04-27T20:39:24.991Z,17.40
2023-04-27T20:41:52.052Z,17.40
2023-04-27T20:44:20.638Z,17.20
2023-04-27T20:46:47.940Z,17.40
2023-04-27T20:49:19.133Z,17.40
2023-04-27T20:51:53.012Z,17.40
2023-04-27T20:54:20.083Z,17.40
2023-04-27T20:56:47.110Z,17.50
2023-04-27T20:59:14.350Z,17.50
2023-04-27T21:01:41.542Z,17.50
2023-04-27T21:04:08.932Z,17.50
2023-04-27T21:06:37.287Z,17.50
2023-04-27T21:09:05.342Z,17.60
2023-04-27T21:11:32.410Z,17.50
2023-04-27T21:13:59.503Z,17.50
2023-04-27T21:16:26.569Z,17.60
2023-04-27T21:18:53.614Z,17.60
2023-04-27T21:21:21.992Z,17.60
2023-04-27T21:23:54.319Z,17.60
2023-04-27T21:26:27.786Z,17.50
2023-04-27T21:28:55.238Z,17.50
2023-04-27T21:31:22.419Z,17.50
2023-04-27T21:33:50.615Z,17.50
2023-04-27T21:36:17.656Z,17.60
2023-04-27T21:38:45.015Z,17.50
2023-04-27T21:41:12.126Z,17.50
2023-04-27T21:43:42.133Z,17.50
2023-04-27T21:46:09.550Z,17.50
2023-04-27T21:48:36.642Z,17.50
2023-04-27T21:51:03.816Z,17.50
2023-04-27T21:53:30.896Z,17.50
2023-04-27T21:55:58.136Z,17.50
2023-04-27T21:58:25.554Z,17.50
2023-04-27T22:00:52.623Z,17.80
2023-04-27T22:03:19.906Z,17.40
2023-04-27T22:05:48.824Z,17.40
2023-04-27T22:08:17.253Z,17.40
2023-04-27T22:10:45.100Z,17.40
2023-04-27T22:13:18.315Z,17.40
2023-04-27T22:15:46.501Z,17.40
2023-04-27T22:18:14.806Z,17.40
2023-04-27T22:20:42.393Z,17.30
2023-04-27T22:23:10.053Z,17.40
2023-04-27T22:25:37.437Z,17.40
2023-04-27T22:28:05.533Z,18.10
2023-04-27T22:30:32.619Z,18.20
2023-04-27T22:33:01.286Z,17.40
2023-04-27T22:35:28.737Z,17.40
2023-04-27T22:37:56.219Z,17.40
2023-04-27T22:40:23.485Z,17.40
2023-04-27T22:42:50.814Z,17.50
2023-04-27T22:45:17.962Z,17.40
2023-04-27T22:47:45.833Z,17.40
2023-04-27T22:50:13.828Z,17.40
2023-04-27T22:52:43.963Z,17.40
2023-04-27T22:55:11.952Z,17.40
2023-04-27T22:57:39.619Z,17.50
2023-04-27T23:00:10.861Z,17.40
2023-04-27T23:02:42.022Z,17.40
2023-04-27T23:05:10.857Z,17.40
2023-04-27T23:07:40.828Z,17.40
2023-04-27T23:10:08.452Z,17.40
2023-04-27T23:12:35.814Z,17.40
2023-04-27T23:15:03.081Z,17.40
2023-04-27T23:17:30.627Z,17.40
2023-04-27T23:19:58.978Z,17.40
2023-04-27T23:22:26.301Z,17.30
2023-04-27T23:24:53.870Z,17.30
2023-04-27T23:27:22.371Z,17.30
2023-04-27T23:29:49.456Z,17.30
2023-04-27T23:32:17.024Z,17.40
2023-04-27T23:34:44.103Z,17.40
2023-04-27T23:37:11.224Z,17.40
2023-04-27T23:39:38.282Z,17.40
2023-04-27T23:42:05.465Z,17.40
2023-04-27T23:44:32.557Z,17.40
2023-04-27T23:46:59.634Z,17.40
2023-04-27T23:49:26.735Z,17.40
2023-04-27T23:51:53.808Z,17.40
2023-04-27T23:54:20.929Z,17.50
2023-04-27T23:56:49.653Z,17.40
2023-04-27T23:59:17.075Z,17.40
